createdAt,value
2019-04-05T00:00:44.464Z,8.40
2019-04-05T00:02:55.297Z,6.97
2019-04-05T00:05:06.271Z,7.03
2019-04-05T00:07:17.113Z,7.57
2019-04-05T00:09:27.985Z,7.43
2019-04-05T00:11:38.913Z,7.63
2019-04-05T00:13:49.867Z,7.20
2019-04-05T00:16:00.936Z,7.50
2019-04-05T00:18:11.960Z,7.73
2019-04-05T00:20:22.922Z,7.67
2019-04-05T00:22:33.762Z,8.20
2019-04-05T00:24:44.724Z,8.43
2019-04-05T00:26:55.566Z,7.90
2019-04-05T00:29:06.524Z,8.33
2019-04-05T00:31:17.490Z,7.30
2019-04-05T00:33:28.449Z,8.03
2019-04-05T00:35:39.333Z,8.53
2019-04-05T00:37:50.164Z,8.50
2019-04-05T00:40:01.157Z,8.37
2019-04-05T00:42:11.981Z,8.93
2019-04-05T00:44:22.861Z,9.20
2019-04-05T00:46:33.989Z,8.57
2019-04-05T00:48:44.839Z,8.80
2019-04-05T00:50:55.715Z,8.80
2019-04-05T00:53:06.642Z,8.27
2019-04-05T00:55:17.593Z,9.40
2019-04-05T00:57:28.433Z,9.57
2019-04-05T00:59:39.299Z,9.73
2019-04-05T01:01:50.334Z,9.73
2019-04-05T01:04:01.290Z,9.80
2019-04-05T01:06:12.263Z,9.97
2019-04-05T01:08:23.215Z,10.70
2019-04-05T01:10:34.169Z,10.53
2019-04-05T01:12:45.104Z,10.97
2019-04-05T01:14:56.286Z,11.40
2019-04-05T01:17:07.127Z,12.43
2019-04-05T01:19:18.270Z,11.60
2019-04-05T01:21:32.925Z,12.17
2019-04-05T01:23:43.776Z,11.73
2019-04-05T01:25:56.162Z,12.80
2019-04-05T01:28:07.215Z,13.43
2019-04-05T01:30:18.175Z,13.23
2019-04-05T01:32:29.028Z,13.07
2019-04-05T01:34:39.985Z,14.97
2019-04-05T01:36:50.934Z,14.73
2019-04-05T01:39:02.178Z,14.93
2019-04-05T01:41:13.129Z,15.47
2019-04-05T01:43:24.071Z,13.97
2019-04-05T01:45:35.013Z,13.63
2019-04-05T01:47:45.967Z,13.97
2019-04-05T01:49:56.805Z,13.60
2019-04-05T01:52:07.753Z,13.37
2019-04-05T01:54:18.700Z,13.33
2019-04-05T01:56:29.648Z,13.10
2019-04-05T01:58:40.509Z,13.00
2019-04-05T02:00:51.536Z,14.40
2019-04-05T02:03:02.619Z,14.67
2019-04-05T02:05:13.654Z,11.80
2019-04-05T02:07:24.603Z,12.33
2019-04-05T02:09:37.837Z,12.20
2019-04-05T02:11:48.847Z,12.43
2019-04-05T02:13:59.704Z,12.03
2019-04-05T02:16:10.656Z,12.03
2019-04-05T02:18:21.545Z,11.20
2019-04-05T02:20:32.488Z,11.93
2019-04-05T02:22:43.343Z,10.73
2019-04-05T02:24:54.276Z,10.83
2019-04-05T02:27:05.248Z,10.27
2019-04-05T02:29:16.077Z,9.43
2019-04-05T02:31:27.041Z,9.53
2019-04-05T02:33:38.025Z,9.93
2019-04-05T02:35:48.961Z,9.13
2019-04-05T02:37:59.934Z,9.10
2019-04-05T02:40:13.556Z,9.50
2019-04-05T02:42:24.986Z,8.93
2019-04-05T02:44:36.565Z,8.33
2019-04-05T02:46:48.197Z,8.33
2019-04-05T02:48:59.762Z,9.27
2019-04-05T02:51:12.669Z,8.83
2019-04-05T02:53:23.822Z,9.93
2019-04-05T02:55:36.069Z,10.17
2019-04-05T02:57:48.023Z,10.30
2019-04-05T02:59:59.484Z,9.53
2019-04-05T03:02:10.512Z,10.17
2019-04-05T03:04:21.817Z,9.43
2019-04-05T03:06:32.972Z,9.23
2019-04-05T03:08:44.131Z,10.20
2019-04-05T03:11:07.707Z,9.70
2019-04-05T03:13:20.046Z,9.37
2019-04-05T03:15:30.908Z,9.23
2019-04-05T03:17:41.859Z,10.10
2019-04-05T03:19:54.733Z,10.57
2019-04-05T03:22:08.190Z,9.80
2019-04-05T03:24:21.752Z,10.63
2019-04-05T03:26:35.790Z,9.20
2019-04-05T03:28:49.560Z,9.20
2019-04-05T03:31:00.583Z,8.73
2019-04-05T03:33:11.535Z,8.27
2019-04-05T03:35:22.493Z,8.43
2019-04-05T03:37:33.439Z,8.27
2019-04-05T03:39:44.386Z,8.40
2019-04-05T03:41:55.637Z,8.70
2019-04-05T03:44:07.151Z,8.57
2019-04-05T03:46:18.305Z,7.93
2019-04-05T03:48:29.249Z,8.20
2019-04-05T03:50:40.207Z,8.83
2019-04-05T03:52:53.008Z,8.07
2019-04-05T03:55:04.271Z,8.40
2019-04-05T03:57:15.410Z,8.43
2019-04-05T03:59:26.266Z,8.93
2019-04-05T04:01:37.405Z,9.00
2019-04-05T04:03:48.243Z,9.37
2019-04-05T04:05:59.104Z,9.13
2019-04-05T04:08:09.941Z,8.80
2019-04-05T04:10:20.916Z,9.17
2019-04-05T04:12:31.849Z,8.60
2019-04-05T04:14:42.878Z,9.40
2019-04-05T04:16:53.843Z,8.37
2019-04-05T04:19:04.833Z,8.90
2019-04-05T04:21:28.721Z,9.00
2019-04-05T04:23:39.662Z,9.13
2019-04-05T04:25:50.521Z,9.57
2019-04-05T04:28:01.464Z,10.10
2019-04-05T04:30:12.510Z,9.73
2019-04-05T04:32:23.539Z,9.67
2019-04-05T04:34:34.495Z,9.17
2019-04-05T04:36:45.443Z,8.77
2019-04-05T04:38:56.457Z,9.67
2019-04-05T04:41:07.415Z,10.67
2019-04-05T04:43:18.941Z,9.43
2019-04-05T04:45:30.761Z,9.53
2019-04-05T04:47:41.632Z,9.77
2019-04-05T04:49:54.866Z,9.90
2019-04-05T04:52:06.137Z,9.47
2019-04-05T04:54:17.397Z,10.00
2019-04-05T04:56:28.233Z,10.83
2019-04-05T04:58:39.205Z,11.40
2019-04-05T05:00:50.354Z,11.50
2019-04-05T05:03:01.328Z,11.50
2019-04-05T05:05:12.836Z,12.13
2019-04-05T05:07:23.984Z,12.07
2019-04-05T05:09:34.941Z,11.73
2019-04-05T05:11:46.007Z,12.10
2019-04-05T05:13:56.977Z,12.33
2019-04-05T05:16:07.931Z,11.93
2019-04-05T05:18:19.034Z,10.93
2019-04-05T05:20:29.977Z,10.57
2019-04-05T05:22:41.366Z,10.77
2019-04-05T05:24:52.324Z,10.77
2019-04-05T05:27:03.502Z,10.43
2019-04-05T05:29:16.290Z,10.90
2019-04-05T05:31:27.125Z,10.73
2019-04-05T05:33:38.099Z,10.33
2019-04-05T05:35:49.344Z,10.73
2019-04-05T05:38:00.301Z,11.27
2019-04-05T05:40:11.586Z,10.87
2019-04-05T05:42:22.496Z,10.37
2019-04-05T05:44:33.904Z,11.30
2019-04-05T05:46:44.951Z,11.47
2019-04-05T05:48:56.039Z,11.93
2019-04-05T05:51:07.746Z,10.40
2019-04-05T05:53:18.846Z,11.17
2019-04-05T05:55:30.260Z,11.40
2019-04-05T05:57:41.230Z,11.43
2019-04-05T05:59:52.105Z,11.37
2019-04-05T06:02:03.151Z,12.03
2019-04-05T06:04:13.998Z,11.73
2019-04-05T06:06:24.949Z,11.77
2019-04-05T06:08:35.850Z,10.50
2019-04-05T06:10:46.724Z,11.00
2019-04-05T06:12:58.798Z,11.80
2019-04-05T06:15:10.155Z,11.80
2019-04-05T06:17:21.037Z,11.50
2019-04-05T06:19:32.015Z,11.70
2019-04-05T06:21:42.860Z,12.57
2019-04-05T06:23:53.732Z,11.87
2019-04-05T06:26:04.573Z,12.20
2019-04-05T06:28:15.537Z,13.03
2019-04-05T06:30:28.770Z,11.87
2019-04-05T06:32:39.131Z,12.30
2019-04-05T06:34:50.129Z,12.33
2019-04-05T06:37:00.991Z,11.73
2019-04-05T06:39:11.920Z,11.90
2019-04-05T06:41:22.784Z,12.43
2019-04-05T06:43:33.724Z,12.27
2019-04-05T06:45:44.642Z,11.93
2019-04-05T06:47:55.436Z,12.23
2019-04-05T06:50:06.990Z,12.63
2019-04-05T06:52:17.826Z,13.80
2019-04-05T06:54:28.819Z,13.67
2019-04-05T06:56:39.889Z,12.67
2019-04-05T06:58:50.731Z,13.13
2019-04-05T07:01:01.602Z,14.70
2019-04-05T07:03:13.704Z,15.10
2019-04-05T07:05:24.799Z,15.07
2019-04-05T07:07:35.769Z,11.37
2019-04-05T07:09:46.591Z,15.43
2019-04-05T07:11:57.458Z,16.17
2019-04-05T07:14:08.498Z,14.63
2019-04-05T07:16:19.463Z,17.17
2019-04-05T07:18:35.644Z,18.03
2019-04-05T07:20:43.195Z,17.30
2019-04-05T07:22:54.054Z,17.63
2019-04-05T07:25:05.186Z,16.77
2019-04-05T07:27:16.038Z,16.93
2019-04-05T07:29:26.878Z,16.00
2019-04-05T07:31:37.867Z,16.90
2019-04-05T07:33:48.824Z,17.73
2019-04-05T07:35:59.678Z,18.77
2019-04-05T07:38:10.534Z,18.40
2019-04-05T07:40:21.605Z,19.60
2019-04-05T07:42:32.492Z,19.33
2019-04-05T07:44:43.336Z,19.50
2019-04-05T07:46:54.197Z,19.17
2019-04-05T07:49:05.138Z,19.13
2019-04-05T07:51:15.970Z,18.90
2019-04-05T07:53:26.975Z,19.63
2019-04-05T07:55:37.811Z,18.73
2019-04-05T07:57:48.662Z,20.73
2019-04-05T07:59:59.501Z,19.33
2019-04-05T08:02:10.457Z,19.60
2019-04-05T08:04:21.314Z,19.90
2019-04-05T08:06:33.576Z,19.53
2019-04-05T08:08:58.333Z,20.20
2019-04-05T08:11:09.609Z,19.80
2019-04-05T08:13:21.737Z,21.97
2019-04-05T08:15:32.586Z,20.77
2019-04-05T08:17:43.501Z,21.73
2019-04-05T08:19:54.292Z,20.23
2019-04-05T08:22:05.284Z,20.33
2019-04-05T08:24:16.266Z,21.07
2019-04-05T08:26:27.108Z,22.33
2019-04-05T08:28:37.980Z,20.23
2019-04-05T08:30:48.922Z,20.53
2019-04-05T08:32:59.772Z,21.70
2019-04-05T08:35:10.827Z,20.40
2019-04-05T08:37:21.665Z,18.83
2019-04-05T08:39:32.528Z,20.43
2019-04-05T08:41:43.454Z,19.63
2019-04-05T08:43:54.312Z,20.03
2019-04-05T08:46:05.365Z,19.63
2019-04-05T08:48:16.317Z,19.30
2019-04-05T08:50:27.165Z,19.23
2019-04-05T08:52:38.106Z,19.03
2019-04-05T08:54:48.970Z,17.67
2019-04-05T08:56:59.826Z,20.10
2019-04-05T08:59:10.809Z,19.67
2019-04-05T09:01:21.682Z,20.03
2019-04-05T09:03:32.591Z,19.77
2019-04-05T09:05:43.476Z,20.40
2019-04-05T09:07:54.420Z,20.03
2019-04-05T09:10:05.381Z,19.57
2019-04-05T09:12:16.328Z,17.43
2019-04-05T09:14:27.302Z,18.93
2019-04-05T09:16:38.165Z,18.80
2019-04-05T09:18:49.537Z,18.97
2019-04-05T09:21:00.691Z,19.70
2019-04-05T09:23:11.535Z,19.63
2019-04-05T09:25:22.607Z,19.90
2019-04-05T09:27:33.551Z,19.10
2019-04-05T09:29:44.522Z,20.13
2019-04-05T09:31:55.378Z,20.20
2019-04-05T09:34:06.321Z,19.80
2019-04-05T09:36:17.395Z,20.90
2019-04-05T09:38:28.330Z,20.73
2019-04-05T09:40:39.282Z,19.43
2019-04-05T09:42:50.330Z,17.73
2019-04-05T09:45:01.264Z,19.27
2019-04-05T09:47:12.336Z,13.10
2019-04-05T09:49:35.796Z,16.80
2019-04-05T09:51:36.378Z,18.67
2019-04-05T09:53:49.155Z,17.70
2019-04-05T09:56:00.040Z,16.77
2019-04-05T09:58:10.880Z,18.53
2019-04-05T10:00:23.532Z,18.67
2019-04-05T10:02:34.392Z,16.53
2019-04-05T10:04:45.294Z,16.27
2019-04-05T10:06:56.133Z,16.03
2019-04-05T10:09:07.396Z,15.30
2019-04-05T10:11:18.252Z,16.87
2019-04-05T10:13:29.143Z,16.33
2019-04-05T10:15:39.981Z,16.77
2019-04-05T10:17:50.872Z,16.00
2019-04-05T10:20:01.830Z,15.40
2019-04-05T10:22:12.786Z,15.77
2019-04-05T10:24:23.686Z,15.83
2019-04-05T10:26:34.548Z,15.30
2019-04-05T10:28:45.457Z,15.40
2019-04-05T10:30:56.310Z,16.20
2019-04-05T10:33:07.274Z,17.07
2019-04-05T10:35:18.153Z,17.13
2019-04-05T10:37:29.010Z,16.20
2019-04-05T10:39:40.067Z,16.33
2019-04-05T10:42:03.691Z,16.03
2019-04-05T10:44:14.707Z,15.63
2019-04-05T10:46:25.581Z,16.87
2019-04-05T10:48:36.563Z,16.07
2019-04-05T10:50:47.738Z,15.50
2019-04-05T10:52:58.697Z,16.00
2019-04-05T10:55:09.764Z,14.57
2019-04-05T10:57:20.621Z,16.27
2019-04-05T10:59:31.582Z,17.57
2019-04-05T11:01:42.436Z,17.53
2019-04-05T11:03:53.397Z,16.67
2019-04-05T11:06:04.367Z,16.73
2019-04-05T11:08:15.226Z,16.07
2019-04-05T11:10:26.199Z,17.03
2019-04-05T11:12:37.156Z,17.83
2019-04-05T11:14:48.042Z,16.43
2019-04-05T11:16:59.020Z,16.07
2019-04-05T11:19:09.985Z,15.30
2019-04-05T11:21:20.842Z,15.20
2019-04-05T11:23:31.798Z,14.80
2019-04-05T11:25:43.517Z,15.87
2019-04-05T11:27:54.377Z,14.73
2019-04-05T11:30:08.664Z,16.60
2019-04-05T11:32:19.661Z,14.93
2019-04-05T11:34:30.620Z,14.07
2019-04-05T11:36:42.088Z,13.40
2019-04-05T11:38:53.062Z,13.13
2019-04-05T11:41:04.614Z,13.40
2019-04-05T11:43:16.328Z,12.97
2019-04-05T11:45:27.491Z,13.17
2019-04-05T11:47:39.688Z,12.90
2019-04-05T11:49:50.925Z,12.53
2019-04-05T11:52:01.991Z,11.43
2019-04-05T11:54:13.867Z,12.03
2019-04-05T11:56:25.307Z,12.83
2019-04-05T11:58:36.169Z,11.70
2019-04-05T12:00:49.125Z,10.73
2019-04-05T12:03:04.591Z,11.00
2019-04-05T12:05:16.950Z,10.73
2019-04-05T12:07:27.809Z,11.80
2019-04-05T12:09:38.783Z,11.70
2019-04-05T12:11:49.620Z,11.53
2019-04-05T12:14:00.458Z,12.43
2019-04-05T12:16:11.336Z,12.30
2019-04-05T12:18:22.309Z,11.67
2019-04-05T12:20:35.041Z,12.10
2019-04-05T12:22:46.223Z,12.57
2019-04-05T12:24:57.062Z,11.63
2019-04-05T12:27:08.033Z,11.70
2019-04-05T12:29:18.900Z,12.23
2019-04-05T12:31:29.872Z,11.73
2019-04-05T12:33:40.834Z,12.60
2019-04-05T12:35:56.458Z,12.13
2019-04-05T12:38:07.125Z,12.97
2019-04-05T12:40:18.396Z,12.77
2019-04-05T12:42:31.250Z,11.37
2019-04-05T12:44:44.855Z,12.13
2019-04-05T12:46:54.890Z,12.57
2019-04-05T12:49:05.831Z,11.80
2019-04-05T12:51:16.834Z,12.00
2019-04-05T12:53:27.645Z,10.87
2019-04-05T12:55:38.526Z,11.70
2019-04-05T12:57:49.539Z,11.33
2019-04-05T13:00:00.370Z,11.97
2019-04-05T13:02:11.291Z,11.73
2019-04-05T13:04:22.145Z,11.33
2019-04-05T13:06:33.131Z,11.70
2019-04-05T13:08:43.979Z,10.97
2019-04-05T13:10:55.949Z,10.97
2019-04-05T13:13:07.757Z,11.70
2019-04-05T13:15:18.611Z,11.20
2019-04-05T13:17:31.309Z,11.33
2019-04-05T13:19:42.374Z,10.63
2019-04-05T13:21:53.241Z,11.30
2019-04-05T13:24:06.864Z,10.70
2019-04-05T13:26:16.977Z,11.30
2019-04-05T13:28:28.060Z,10.77
2019-04-05T13:30:38.911Z,10.67
2019-04-05T13:32:52.773Z,11.07
2019-04-05T13:35:04.156Z,10.43
2019-04-05T13:37:20.511Z,10.77
2019-04-05T13:39:29.719Z,10.10
2019-04-05T13:41:40.847Z,10.77
2019-04-05T13:43:51.808Z,11.17
2019-04-05T13:46:03.184Z,11.07
2019-04-05T13:48:14.159Z,10.30
2019-04-05T13:50:25.020Z,10.87
2019-04-05T13:52:35.956Z,11.57
2019-04-05T13:54:46.875Z,10.97
2019-04-05T13:56:57.730Z,10.20
2019-04-05T13:59:08.717Z,10.73
2019-04-05T14:01:20.659Z,11.20
2019-04-05T14:03:32.370Z,10.00
2019-04-05T14:05:45.122Z,10.00
2019-04-05T14:08:09.793Z,10.70
2019-04-05T14:10:12.270Z,10.77
2019-04-05T14:12:22.743Z,10.13
2019-04-05T14:14:33.603Z,11.10
2019-04-05T14:16:44.482Z,10.00
2019-04-05T14:18:57.317Z,11.00
2019-04-05T14:21:08.197Z,10.30
2019-04-05T14:23:23.314Z,11.07
2019-04-05T14:25:32.125Z,12.00
2019-04-05T14:27:43.092Z,11.10
2019-04-05T14:29:53.957Z,10.57
2019-04-05T14:32:19.738Z,11.10
2019-04-05T14:34:23.440Z,11.00
2019-04-05T14:36:32.691Z,11.17
2019-04-05T14:38:43.644Z,10.43
2019-04-05T14:40:54.512Z,10.37
2019-04-05T14:43:05.562Z,10.67
2019-04-05T14:45:16.628Z,10.77
2019-04-05T14:47:28.334Z,10.50
2019-04-05T14:49:40.087Z,10.80
2019-04-05T14:51:53.893Z,10.90
2019-04-05T14:54:04.060Z,10.07
2019-04-05T14:56:16.854Z,10.73
2019-04-05T14:58:27.807Z,10.53
2019-04-05T15:00:38.837Z,10.57
2019-04-05T15:02:49.710Z,11.47
2019-04-05T15:05:02.607Z,10.93
2019-04-05T15:07:13.552Z,11.73
2019-04-05T15:09:25.559Z,10.80
2019-04-05T15:11:36.630Z,11.10
2019-04-05T15:13:47.577Z,11.53
2019-04-05T15:15:58.443Z,11.00
2019-04-05T15:18:09.318Z,10.70
2019-04-05T15:20:20.272Z,10.33
2019-04-05T15:22:31.134Z,9.30
2019-04-05T15:24:41.965Z,10.77
2019-04-05T15:26:53.010Z,10.30
2019-04-05T15:29:03.834Z,10.07
2019-04-05T15:31:14.824Z,10.00
2019-04-05T15:33:27.845Z,10.40
2019-04-05T15:35:38.596Z,10.90
2019-04-05T15:37:49.555Z,11.10
2019-04-05T15:40:00.848Z,10.77
2019-04-05T15:42:11.942Z,10.17
2019-04-05T15:44:22.803Z,10.60
2019-04-05T15:46:33.876Z,10.10
2019-04-05T15:48:44.948Z,10.80
2019-04-05T15:50:59.081Z,10.93
2019-04-05T15:53:08.999Z,9.57
2019-04-05T15:55:19.849Z,10.03
2019-04-05T15:57:33.493Z,9.47
2019-04-05T15:59:45.155Z,10.63
2019-04-05T16:04:26.817Z,9.60
2019-04-05T16:06:39.052Z,10.37
2019-04-05T16:08:50.288Z,9.83
2019-04-05T16:11:01.245Z,9.90
2019-04-05T16:13:12.230Z,9.20
2019-04-05T16:15:23.091Z,10.37
2019-04-05T16:17:33.972Z,9.87
2019-04-05T16:19:45.062Z,9.90
2019-04-05T16:21:56.053Z,9.90
2019-04-05T16:24:07.133Z,9.83
2019-04-05T16:26:18.100Z,9.80
2019-04-05T16:28:29.081Z,9.37
2019-04-05T16:30:40.118Z,9.80
2019-04-05T16:32:51.192Z,10.07
2019-04-05T16:35:04.087Z,10.77
2019-04-05T16:37:17.411Z,9.83
2019-04-05T16:39:28.461Z,10.30
2019-04-05T16:41:39.367Z,8.87
2019-04-05T16:43:56.400Z,11.13
2019-04-05T16:46:07.252Z,10.00
2019-04-05T16:48:18.111Z,10.20
2019-04-05T16:50:29.132Z,9.93
2019-04-05T16:52:44.977Z,10.03
2019-04-05T16:54:52.868Z,11.03
2019-04-05T16:57:03.724Z,11.03
2019-04-05T16:59:14.715Z,11.37
2019-04-05T17:01:27.193Z,10.80
2019-04-05T17:03:38.583Z,11.40
2019-04-05T17:05:49.531Z,11.03
2019-04-05T17:08:00.470Z,11.10
2019-04-05T17:10:11.797Z,10.13
2019-04-05T17:12:22.669Z,10.77
2019-04-05T17:14:33.638Z,10.70
2019-04-05T17:16:44.499Z,10.20
2019-04-05T17:18:55.386Z,11.90
2019-04-05T17:21:06.275Z,11.27
2019-04-05T17:23:17.239Z,12.03
2019-04-05T17:25:28.271Z,11.90
2019-04-05T17:27:39.244Z,11.13
2019-04-05T17:29:51.014Z,10.73
2019-04-05T17:32:03.237Z,12.50
2019-04-05T17:34:14.106Z,12.17
2019-04-05T17:36:25.126Z,12.77
2019-04-05T17:38:35.979Z,13.23
2019-04-05T17:40:46.868Z,11.27
2019-04-05T17:42:57.721Z,14.20
2019-04-05T17:45:09.002Z,11.47
2019-04-05T17:47:19.970Z,11.97
2019-04-05T17:49:30.853Z,12.13
2019-04-05T17:51:41.836Z,11.33
2019-04-05T17:53:52.791Z,10.63
2019-04-05T17:56:03.870Z,11.73
2019-04-05T17:58:16.550Z,10.97
2019-04-05T18:00:27.424Z,11.17
2019-04-05T18:02:38.299Z,12.07
2019-04-05T18:04:51.102Z,10.77
2019-04-05T18:07:03.993Z,11.50
2019-04-05T18:09:14.835Z,11.07
2019-04-05T18:11:25.864Z,11.30
2019-04-05T18:13:36.803Z,10.40
2019-04-05T18:15:52.770Z,11.27
2019-04-05T18:18:00.585Z,10.57
2019-04-05T18:20:11.534Z,11.43
2019-04-05T18:22:22.400Z,11.27
2019-04-05T18:24:33.346Z,11.60
2019-04-05T18:26:44.257Z,10.93
2019-04-05T18:28:55.101Z,11.77
2019-04-05T18:31:06.050Z,11.03
2019-04-05T18:33:16.964Z,11.77
2019-04-05T18:35:27.880Z,11.03
2019-04-05T18:37:38.797Z,11.53
2019-04-05T18:39:49.796Z,11.07
2019-04-05T18:42:00.744Z,11.20
2019-04-05T18:44:11.606Z,10.50
2019-04-05T18:46:22.449Z,11.13
2019-04-05T18:48:33.431Z,12.20
2019-04-05T18:50:44.307Z,13.03
2019-04-05T18:52:55.198Z,13.20
2019-04-05T18:55:06.191Z,12.53
2019-04-05T18:57:17.141Z,12.33
2019-04-05T18:59:28.019Z,11.63
2019-04-05T19:01:38.865Z,11.80
2019-04-05T19:03:49.761Z,12.47
2019-04-05T19:06:00.681Z,12.80
2019-04-05T19:08:11.741Z,12.43
2019-04-05T19:10:22.708Z,11.67
2019-04-05T19:12:34.461Z,12.50
2019-04-05T19:14:45.305Z,11.33
2019-04-05T19:16:59.123Z,12.03
2019-04-05T19:19:09.103Z,12.57
2019-04-05T19:21:20.158Z,11.90
2019-04-05T19:23:31.149Z,11.50
2019-04-05T19:25:42.048Z,12.43
2019-04-05T19:27:52.908Z,12.10
2019-04-05T19:50:01.825Z,13.13
2019-04-05T19:52:12.681Z,11.73
2019-04-05T19:54:23.530Z,12.90
2019-04-05T19:56:34.505Z,13.13
2019-04-05T19:58:45.366Z,11.87
2019-04-05T20:00:56.332Z,10.97
2019-04-05T20:03:07.392Z,10.80
2019-04-05T20:05:18.502Z,10.77
2019-04-05T20:07:29.445Z,11.03
2019-04-05T20:09:40.530Z,11.00
2019-04-05T20:11:51.421Z,10.97
2019-04-05T20:14:02.511Z,11.07
2019-04-05T20:16:13.413Z,10.47
2019-04-05T20:18:24.477Z,11.10
2019-04-05T20:20:35.346Z,9.90
2019-04-05T20:22:46.250Z,11.10
2019-04-05T20:24:57.265Z,10.23
2019-04-05T20:27:08.153Z,9.93
2019-04-05T20:29:19.005Z,11.67
2019-04-05T20:31:29.969Z,11.77
2019-04-05T20:33:40.921Z,11.73
2019-04-05T20:35:51.881Z,11.67
2019-04-05T20:38:02.860Z,11.53
2019-04-05T20:40:13.833Z,11.03
2019-04-05T20:42:24.822Z,11.20
2019-04-05T20:44:35.682Z,10.10
2019-04-05T20:46:46.554Z,10.53
2019-04-05T20:48:57.526Z,10.80
2019-04-05T20:51:08.472Z,11.37
2019-04-05T20:53:19.457Z,12.70
2019-04-05T20:55:32.188Z,11.80
2019-04-05T20:57:43.078Z,10.60
2019-04-05T20:59:54.030Z,9.90
2019-04-05T21:02:05.099Z,9.47
2019-04-05T21:04:16.000Z,9.20
2019-04-05T21:06:26.961Z,10.17
2019-04-05T21:08:37.822Z,9.90
2019-04-05T21:10:48.876Z,8.97
2019-04-05T21:12:59.757Z,9.17
2019-04-05T21:15:10.726Z,9.60
2019-04-05T21:17:21.584Z,9.67
2019-04-05T21:19:32.462Z,9.77
2019-04-05T21:21:43.357Z,9.43
2019-04-05T21:23:54.256Z,9.90
2019-04-05T21:26:05.223Z,9.37
2019-04-05T21:28:16.109Z,9.60
2019-04-05T21:30:26.951Z,9.50
2019-04-05T21:32:37.809Z,9.80
2019-04-05T21:34:48.809Z,9.33
2019-04-05T21:36:59.665Z,10.00
2019-04-05T21:39:10.551Z,10.73
2019-04-05T21:41:21.518Z,11.10
2019-04-05T21:43:32.411Z,10.37
2019-04-05T21:45:43.381Z,11.00
2019-04-05T21:47:54.226Z,10.33
2019-04-05T21:50:06.732Z,11.50
2019-04-05T21:52:17.580Z,11.00
2019-04-05T21:54:28.438Z,11.60
2019-04-05T21:56:39.274Z,11.17
2019-04-05T21:58:50.124Z,11.77
2019-04-05T22:01:05.915Z,11.57
2019-04-05T22:03:16.866Z,11.80
2019-04-05T22:05:27.740Z,12.13
2019-04-05T22:07:38.581Z,11.63
2019-04-05T22:09:49.577Z,11.00
2019-04-05T22:12:00.504Z,11.07
2019-04-05T22:14:11.376Z,11.77
2019-04-05T22:16:22.342Z,12.43
2019-04-05T22:18:33.181Z,12.60
2019-04-05T22:20:44.159Z,12.37
2019-04-05T22:22:55.020Z,11.33
2019-04-05T22:25:06.244Z,12.23
2019-04-05T22:27:17.151Z,10.73
2019-04-05T22:29:28.084Z,11.87
2019-04-05T22:31:38.983Z,11.60
2019-04-05T22:33:49.875Z,13.03
2019-04-05T22:36:00.748Z,12.73
2019-04-05T22:38:11.652Z,12.07
2019-04-05T22:40:22.524Z,11.97
2019-04-05T22:42:33.371Z,12.40
2019-04-05T22:44:44.218Z,12.63
2019-04-05T22:46:56.996Z,13.03
2019-04-05T22:49:07.924Z,13.57
2019-04-05T22:51:18.799Z,13.20
2019-04-05T22:53:29.649Z,12.80
2019-04-05T22:55:40.573Z,12.60
2019-04-05T22:57:51.463Z,12.10
2019-04-05T23:00:05.118Z,12.87
2019-04-05T23:02:16.127Z,12.53
2019-04-05T23:04:27.162Z,12.17
2019-04-05T23:06:38.009Z,12.37
2019-04-05T23:08:48.861Z,12.10
2019-04-05T23:10:59.732Z,11.70
2019-04-05T23:13:10.672Z,12.27
2019-04-05T23:15:21.652Z,12.50
2019-04-05T23:17:32.615Z,12.40
2019-04-05T23:19:43.479Z,13.47
2019-04-05T23:21:54.461Z,12.63
2019-04-05T23:24:05.316Z,12.13
2019-04-05T23:26:16.179Z,13.03
2019-04-05T23:28:27.079Z,12.20
2019-04-05T23:30:37.922Z,12.13
2019-04-05T23:32:48.839Z,13.40
2019-04-05T23:35:01.585Z,13.10
2019-04-05T23:37:12.507Z,12.70
2019-04-05T23:39:23.330Z,13.40
2019-04-05T23:41:34.195Z,13.33
2019-04-05T23:43:45.032Z,13.20
2019-04-05T23:45:55.893Z,12.93
2019-04-05T23:48:06.749Z,12.63
2019-04-05T23:50:17.605Z,13.23
2019-04-05T23:52:28.461Z,12.83
2019-04-05T23:54:39.453Z,13.40
2019-04-05T23:56:50.401Z,13.47
2019-04-05T23:59:01.356Z,13.20
